Time;durP1;ratioP1;P1;durP2;ratioP2;P2;SDS_P1;SDS_P2;PMS_P1;PMS_P2;Temp;Humidity;BMP_temperature;BMP_pressure;BME280_temperature;BME280_humidity;BME280_pressure;Samples;Min_cycle;Max_cycle;Signal;HPM_P1;HPM_P2
2021/12/26 20:11:53;;;;;;;97.00;38.60;;;;;;;-5.24;61.69;100175.56;4993940;28;96748;-85
2021/12/26 20:14:19;;;;;;;97.73;36.90;;;;;;;-5.13;61.73;100198.00;4987137;28;101246;-85
2021/12/26 20:16:44;;;;;;;97.97;36.67;;;;;;;-5.11;61.56;100181.84;4959595;28;101625;-85
2021/12/26 20:19:21;;;;;;;109.07;40.00;;;;;;;-5.10;61.48;100183.59;4976599;28;96827;-86
2021/12/26 20:21:50;;;;;;;114.87;43.87;;;;;;;-4.99;61.16;100193.25;4999685;28;97731;-86
2021/12/26 20:24:20;;;;;;;119.30;47.20;;;;;;;-4.90;60.68;100193.50;4972725;28;102504;-85
2021/12/26 20:26:47;;;;;;;124.97;50.00;;;;;;;-4.98;60.78;100192.41;4980457;28;98143;-85
2021/12/26 20:29:13;;;;;;;128.03;47.70;;;;;;;-4.90;61.32;100189.22;4970969;28;96722;-84
2021/12/26 20:31:40;;;;;;;120.43;49.53;;;;;;;-4.91;60.72;100195.19;4977181;28;97438;-84
2021/12/26 20:34:06;;;;;;;125.87;48.20;;;;;;;-4.95;60.52;100178.00;4999409;28;101637;-83
2021/12/26 20:36:32;;;;;;;132.53;47.83;;;;;;;-4.88;60.72;100192.72;5002089;28;99643;-83
2021/12/26 20:38:57;;;;;;;127.67;49.57;;;;;;;-4.91;60.08;100202.00;4995490;28;96730;-81
2021/12/26 20:41:23;;;;;;;118.57;45.87;;;;;;;-5.01;60.06;100196.63;5015001;28;96915;-86
2021/12/26 20:43:51;;;;;;;126.50;48.93;;;;;;;-5.02;60.78;100194.91;4988784;28;100424;-86
2021/12/26 20:46:18;;;;;;;127.77;49.10;;;;;;;-5.10;60.20;100186.13;4968988;28;100362;-86
2021/12/26 20:48:45;;;;;;;117.97;47.33;;;;;;;-4.86;60.43;100187.63;4968035;28;96662;-84
2021/12/26 20:51:11;;;;;;;115.83;45.63;;;;;;;-5.03;60.08;100176.94;5006077;28;96903;-86
2021/12/26 20:53:38;;;;;;;121.43;48.73;;;;;;;-5.19;60.19;100162.00;4996070;28;98226;-87
2021/12/26 20:56:05;;;;;;;126.10;48.07;;;;;;;-4.94;59.94;100190.00;4977072;28;101260;-85
2021/12/26 20:58:31;;;;;;;126.60;46.53;;;;;;;-4.96;59.77;100172.84;4964636;28;96723;-86
2021/12/26 21:00:57;;;;;;;126.13;50.03;;;;;;;-5.05;60.17;100181.16;5000829;28;96949;-85
2021/12/26 21:03:23;;;;;;;131.53;48.63;;;;;;;-5.13;59.70;100163.03;5000611;28;98457;-85
2021/12/26 21:05:48;;;;;;;130.40;51.50;;;;;;;-5.12;59.91;100169.00;4983106;28;101444;-85
2021/12/26 21:08:14;;;;;;;137.60;51.27;;;;;;;-5.01;59.58;100165.91;4964494;28;96874;-84
2021/12/26 21:10:40;;;;;;;138.57;51.43;;;;;;;-4.90;59.10;100179.00;4982844;28;97645;-88
2021/12/26 21:13:06;;;;;;;135.57;51.33;;;;;;;-5.06;59.50;100166.59;4984494;28;100592;-88
2021/12/26 21:15:32;;;;;;;141.33;54.10;;;;;;;-5.13;59.27;100174.97;4985080;28;101222;-89
2021/12/26 21:17:58;;;;;;;144.40;54.47;;;;;;;-5.12;59.50;100176.69;4960700;28;96752;-89
2021/12/26 21:20:23;;;;;;;144.43;51.63;;;;;;;-5.42;59.18;100123.84;4982234;28;96799;-89
2021/12/26 21:22:49;;;;;;;125.70;48.77;;;;;;;-5.37;59.49;100141.91;4981143;28;101156;-89
2021/12/26 21:25:17;;;;;;;121.47;46.43;;;;;;;-5.43;59.54;100126.38;4977383;28;100945;-87
2021/12/26 21:27:42;;;;;;;128.17;50.13;;;;;;;-5.14;59.18;100139.97;4992945;28;97234;-90
2021/12/26 21:30:09;;;;;;;127.13;48.80;;;;;;;-5.07;59.15;100186.22;4957887;28;96907;-85
2021/12/26 21:32:35;;;;;;;129.90;51.23;;;;;;;-5.09;59.01;100181.88;4975542;28;100001;-85
2021/12/26 21:35:01;;;;;;;134.20;47.87;;;;;;;-5.35;59.23;100165.81;4971055;28;101475;-84
2021/12/26 21:37:27;;;;;;;123.47;48.07;;;;;;;-5.17;59.60;100183.41;4962679;28;96769;-84
2021/12/26 21:39:53;;;;;;;122.80;49.03;;;;;;;-5.54;59.27;100131.19;4960637;28;96985;-85
2021/12/26 21:42:18;;;;;;;116.73;43.43;;;;;;;-5.33;59.39;100164.19;4975059;28;101331;-85
2021/12/26 21:44:45;;;;;;;115.63;42.10;;;;;;;-5.17;59.62;100180.84;4959212;28;98046;-84
2021/12/26 21:47:11;;;;;;;105.83;41.33;;;;;;;-5.25;59.37;100162.69;4959748;28;96776;-84
2021/12/26 21:49:37;;;;;;;95.97;37.87;;;;;;;-5.10;59.30;100180.16;4992620;28;96652;-84
2021/12/26 21:52:03;;;;;;;96.73;38.63;;;;;;;-5.18;58.29;100156.91;4978402;28;101644;-85
2021/12/26 21:54:29;;;;;;;100.00;37.80;;;;;;;-5.12;59.08;100156.19;4970867;28;98426;-84
2021/12/26 21:57:02;;;;;;;102.47;37.53;;;;;;;-5.05;58.68;100174.34;4975634;28;96846;-84
2021/12/26 21:59:27;;;;;;;86.43;36.70;;;;;;;-5.11;58.45;100188.69;4946016;28;96874;-85
2021/12/26 22:01:53;;;;;;;87.77;35.23;;;;;;;-5.45;58.84;100146.78;4976120;28;98159;-84
2021/12/26 22:04:18;;;;;;;93.63;35.27;;;;;;;-5.44;58.61;100150.22;4976633;28;97653;-85
2021/12/26 22:06:44;;;;;;;86.27;33.63;;;;;;;-5.33;58.92;100170.16;4943172;28;96899;-84
2021/12/26 22:09:10;;;;;;;98.07;39.23;;;;;;;-5.35;58.48;100173.50;4973811;28;96859;-85
2021/12/26 22:11:35;;;;;;;85.73;35.77;;;;;;;-5.47;59.20;100176.56;4965460;28;100206;-84
2021/12/26 22:14:01;;;;;;;89.60;36.50;;;;;;;-5.38;58.43;100176.88;4975644;28;100410;-84
2021/12/26 22:16:27;;;;;;;90.80;34.97;;;;;;;-5.49;58.72;100171.44;4976148;28;97433;-85
2021/12/26 22:18:52;;;;;;;93.73;37.83;;;;;;;-5.47;58.83;100171.47;4978826;28;97477;-85
2021/12/26 22:21:19;;;;;;;96.97;37.63;;;;;;;-5.56;59.17;100168.66;4962772;28;100476;-85
2021/12/26 22:23:49;;;;;;;91.43;37.17;;;;;;;-5.58;58.74;100172.88;4979559;28;101469;-85
2021/12/26 22:26:15;;;;;;;98.07;38.30;;;;;;;-5.61;58.78;100155.75;4989569;28;98237;-85
2021/12/26 22:28:42;;;;;;;101.87;40.53;;;;;;;-5.58;59.11;100155.84;4976876;28;96983;-85
2021/12/26 22:31:07;;;;;;;106.00;39.97;;;;;;;-5.69;58.67;100154.66;4976468;28;100354;-86
2021/12/26 22:33:33;;;;;;;112.67;45.27;;;;;;;-5.85;58.60;100162.69;4950420;28;100969;-85
2021/12/26 22:35:59;;;;;;;126.80;45.20;;;;;;;-5.81;58.73;100167.09;4976605;28;98615;-86
2021/12/26 22:38:24;;;;;;;127.03;45.17;;;;;;;-6.27;58.90;100106.97;4976248;28;96894;-85
2021/12/26 22:40:52;;;;;;;120.40;45.27;;;;;;;-5.99;58.61;100129.97;4986628;28;97676;-85
2021/12/26 22:43:18;;;;;;;115.87;43.90;;;;;;;-6.09;59.24;100153.50;4976091;28;101324;-85
2021/12/26 22:45:43;;;;;;;122.30;42.63;;;;;;;-6.08;58.58;100139.03;4958983;28;96793;-84
2021/12/26 22:48:09;;;;;;;120.60;43.97;;;;;;;-6.18;58.63;100109.78;4961172;28;96858;-85
2021/12/26 22:50:34;;;;;;;133.83;46.40;;;;;;;-6.29;58.04;100113.72;4957202;28;100332;-88
2021/12/26 22:53:00;;;;;;;135.10;46.83;;;;;;;-6.13;58.30;100159.38;4970629;28;101145;-86
2021/12/26 22:55:26;;;;;;;138.10;47.77;;;;;;;-6.30;58.87;100133.28;4962747;28;96778;-86
2021/12/26 22:57:51;;;;;;;143.57;51.00;;;;;;;-6.53;58.47;100124.03;4976783;28;96827;-86
2021/12/26 23:00:21;;;;;;;133.73;47.47;;;;;;;-6.38;59.23;100148.38;4978193;28;98467;-86
2021/12/26 23:02:53;;;;;;;135.90;49.73;;;;;;;-6.34;58.52;100139.13;4955181;28;101307;-87
2021/12/26 23:05:18;;;;;;;145.17;50.47;;;;;;;-6.22;58.27;100147.16;4989533;28;97141;-87
2021/12/26 23:07:49;;;;;;;141.10;49.73;;;;;;;-6.68;59.01;100109.09;4961466;28;96908;-86
2021/12/26 23:10:14;;;;;;;144.20;52.03;;;;;;;-6.77;59.12;100119.03;4990247;28;98159;-87
2021/12/26 23:12:40;;;;;;;151.90;51.07;;;;;;;-6.77;59.31;100088.41;4968208;28;99562;-86
2021/12/26 23:15:06;;;;;;;141.90;51.07;;;;;;;-6.68;58.90;100099.75;5013390;28;96680;-87
2021/12/26 23:17:33;;;;;;;133.70;47.40;;;;;;;-6.47;58.32;100117.44;4973174;28;97601;-87
2021/12/26 23:19:59;;;;;;;141.40;45.73;;;;;;;-6.24;57.87;100136.03;4973488;28;100334;-86
2021/12/26 23:22:31;;;;;;;148.43;48.70;;;;;;;-6.33;58.00;100148.53;4978946;28;98350;-86
2021/12/26 23:24:56;;;;;;;131.43;44.90;;;;;;;-6.59;57.86;100104.28;4980656;28;96598;-86
2021/12/26 23:27:22;;;;;;;135.30;47.03;;;;;;;-6.59;57.45;100117.06;4981021;28;96954;-86
2021/12/26 23:29:48;;;;;;;134.57;46.30;;;;;;;-6.63;58.13;100112.69;4958045;28;100842;-86
2021/12/26 23:32:13;;;;;;;126.50;44.07;;;;;;;-6.54;58.06;100120.63;4975272;28;99935;-86
2021/12/26 23:34:39;;;;;;;128.27;43.83;;;;;;;-6.55;58.17;100120.56;4974318;28;97085;-87
2021/12/26 23:37:04;;;;;;;121.13;43.73;;;;;;;-6.33;57.68;100128.09;4974828;28;96849;-87
2021/12/26 23:39:30;;;;;;;120.60;41.50;;;;;;;-6.29;56.90;100109.47;4975381;28;100472;-87
2021/12/26 23:41:56;;;;;;;116.47;42.37;;;;;;;-6.40;56.83;100103.16;4974480;28;101332;-86
2021/12/26 23:44:21;;;;;;;115.43;42.57;;;;;;;-6.48;57.25;100099.53;4975828;28;96646;-86
2021/12/26 23:46:47;;;;;;;117.17;40.73;;;;;;;-6.31;56.93;100118.78;4975011;28;97091;-86
2021/12/26 23:49:12;;;;;;;112.83;38.83;;;;;;;-6.32;57.49;100109.38;4991569;28;99889;-86
2021/12/26 23:51:38;;;;;;;111.50;39.40;;;;;;;-6.38;57.45;100087.06;4957250;28;100659;-86
2021/12/26 23:54:04;;;;;;;105.20;38.70;;;;;;;-6.59;56.71;100053.22;4942992;28;96707;-87
2021/12/26 23:56:30;;;;;;;101.33;38.73;;;;;;;-6.29;56.29;100104.34;4959003;28;97214;-87
2021/12/26 23:58:57;;;;;;;98.83;37.07;;;;;;;-6.34;56.34;100102.47;4958329;28;99667;-87
